Petaluma — WCX2520 — position and weather

sailwx.info

Track history (hours):
 
Tides and Currents Weather Stations Pressure Air Temp Water Temp Dewpoint Dewpoint Depression Visibility Wind Speed Wind Dir Waves Ship Positions

Petaluma

Owner: JERICO PRODUCTS INC, PETALUMA, CA. More information available from US FCC via Universal Licensing System and Coast Guard Vessel Documentation Center.

Last reported at 2018-Jun-21 09:41 UTC. Time now 2018-Jun-21 10:07 UTC.
Position N 38°03' W 122°05'.

Length 20 m; draft 3.9 m.

Type: Towing. MMSI: 367006030.

Date/timePositionNaut miles runAvg speedWind from/ knotsBaromVisibWave heightAir tempDewpointWater temp
2018-Jun-21 09:41N 38°03' W 122°05'2 5.2
2018-Jun-21 09:13N 38°02' W 122°08'1 5.1
2018-Jun-21 09:00N 38°02' W 122°10'3 5.4
2018-Jun-21 08:30N 38°03' W 122°13'3 5.0
2018-Jun-21 08:00N 38°04' W 122°16'3 5.7
2018-Jun-21 07:30N 38°03' W 122°20'3 5.8
2018-Jun-21 06:59N 38°03' W 122°23'4 6.9
2018-Jun-21 06:27N 38°06' W 122°27'3 7.0
2018-Jun-21 06:00N 38°07' W 122°30'3 6.4
2018-Jun-21 05:30N 38°10' W 122°32'2 4.2
2018-Jun-21 05:00N 38°12' W 122°33'3 5.2
2018-Jun-21 04:30N 38°13' W 122°36'1 1.1
2018-Jun-21 04:00N 38°13' W 122°36'0 0.0
2018-Jun-21 03:30N 38°13' W 122°36'0 0.0
2018-Jun-21 02:59N 38°13' W 122°36'0 0.0
2018-Jun-21 02:29N 38°13' W 122°36'0 0.0
2018-Jun-21 02:00N 38°13' W 122°36'0 0.0
2018-Jun-21 01:30N 38°13' W 122°36'0 0.0
2018-Jun-21 00:59N 38°13' W 122°36'0 0.0
2018-Jun-21 00:30N 38°13' W 122°36'0 0.0
2018-Jun-21 00:00N 38°13' W 122°36'0 0.0
2018-Jun-20 23:30N 38°13' W 122°36'0 0.0
2018-Jun-20 23:00N 38°13' W 122°36'0 0.0
2018-Jun-20 22:30N 38°13' W 122°36'0 0.0
2018-Jun-20 22:00N 38°13' W 122°36'0 0.0
2018-Jun-20 21:30N 38°13' W 122°36'0 0.0
2018-Jun-20 21:00N 38°13' W 122°36'0 0.0
2018-Jun-20 20:30N 38°13' W 122°36'0 0.0
2018-Jun-20 20:00N 38°13' W 122°36'0 0.0
2018-Jun-20 19:30N 38°13' W 122°36'0 0.0
2018-Jun-20 19:00N 38°13' W 122°36'0 0.0
2018-Jun-20 18:30N 38°13' W 122°36'0 0.0
2018-Jun-20 18:00N 38°13' W 122°36'0 0.0
2018-Jun-20 17:29N 38°13' W 122°36'0 0.0
2018-Jun-20 17:00N 38°13' W 122°36'0 0.0
2018-Jun-20 16:30N 38°13' W 122°36'0 0.0
2018-Jun-20 16:00N 38°13' W 122°36'0 0.0
2018-Jun-20 15:30N 38°13' W 122°36'0 0.0
2018-Jun-20 15:00N 38°13' W 122°36'0 0.0
2018-Jun-20 14:30N 38°13' W 122°36'0 0.0
2018-Jun-20 14:00N 38°13' W 122°36'0 0.0
2018-Jun-20 13:30N 38°13' W 122°36'0 0.0
2018-Jun-20 13:00N 38°13' W 122°36'0 0.0
2018-Jun-20 12:30N 38°13' W 122°36'0 0.0
2018-Jun-20 12:00N 38°13' W 122°36'0 0.0
2018-Jun-20 11:30N 38°13' W 122°36'0 0.0
2018-Jun-20 11:00N 38°13' W 122°36'0 0.0
2018-Jun-20 10:27N 38°13' W 122°36'0 0.0
2018-Jun-20 10:00N 38°13' W 122°36'0 0.0
2018-Jun-20 09:13N 38°13' W 122°36'0 0.0
2018-Jun-20 08:56N 38°13' W 122°36'0 0.0
2018-Jun-20 08:29N 38°13' W 122°36'0 0.0
2018-Jun-20 07:59N 38°13' W 122°36'0 0.0
2018-Jun-20 07:11N 38°13' W 122°36'0 0.0
2018-Jun-20 06:58N 38°13' W 122°36'0 0.0
2018-Jun-20 06:30N 38°13' W 122°36'0 0.0
2018-Jun-20 06:00N 38°13' W 122°36'0 0.0
2018-Jun-20 05:30N 38°13' W 122°36'0 0.0
2018-Jun-20 05:00N 38°13' W 122°36'0 0.0
2018-Jun-20 04:30N 38°13' W 122°36'0 0.0
2018-Jun-20 04:00N 38°13' W 122°36'0 0.0
2018-Jun-20 03:30N 38°13' W 122°36'0 0.0
2018-Jun-20 03:00N 38°13' W 122°36'0 0.7
2018-Jun-20 02:29N 38°13' W 122°36'2 3.5
2018-Jun-20 02:00N 38°12' W 122°34'2 3.4
2018-Jun-20 01:30N 38°11' W 122°33'2 3.5
2018-Jun-20 01:00N 38°09' W 122°33'3 4.9
2018-Jun-20 00:27N 38°07' W 122°31'2 4.2
2018-Jun-20 00:00N 38°07' W 122°28'3 5.0
2018-Jun-19 23:25N 38°05' W 122°26'2 3.8
2018-Jun-19 22:57N 38°03' W 122°25'1 1.1
2018-Jun-19 22:24N 38°02' W 122°25'0 0.0
2018-Jun-19 21:41N 38°02' W 122°25'1 3.1
2018-Jun-19 21:26N 38°02' W 122°25'2 5.1
2018-Jun-19 21:00N 38°02' W 122°22'3 5.4
2018-Jun-19 20:30N 38°03' W 122°19'8 0.7
2018-Jun-19 08:31N 38°02' W 122°08'2 4.3
2018-Jun-19 08:07N 38°03' W 122°10'0 4.5
2018-Jun-19 08:00N 38°03' W 122°11'2 3.8
2018-Jun-19 07:30N 38°04' W 122°13'2 2.9
2018-Jun-19 06:59N 38°04' W 122°15'1 0.2
2018-Jun-19 00:03N 38°06' W 122°16'0 0.0
2018-Jun-19 00:00N 38°06' W 122°16'0 0.0
2018-Jun-18 22:27N 38°06' W 122°16'1 3.2
2018-Jun-18 22:00N 38°04' W 122°15'16 4.9
2018-Jun-18 18:40N 38°03' W 121°54'0 0.0
2018-Jun-18 17:43N 38°03' W 121°54'0 0.0
2018-Jun-18 17:17N 38°03' W 121°54'12 1.3
2018-Jun-18 08:12N 38°02' W 122°09'1 6.3
2018-Jun-18 08:00N 38°03' W 122°11'3 6.0
2018-Jun-18 07:28N 38°04' W 122°15'3 5.9
2018-Jun-18 07:00N 38°04' W 122°18'4 6.1
2018-Jun-18 06:16N 38°03' W 122°24'6 6.0
2018-Jun-18 05:18N 38°07' W 122°30'2 6.0
2018-Jun-18 05:00N 38°08' W 122°31'2 3.6
2018-Jun-18 04:30N 38°10' W 122°32'3 5.7
2018-Jun-18 04:00N 38°12' W 122°34'2 4.4
2018-Jun-18 03:30N 38°14' W 122°37'0 0.0
2018-Jun-17 10:43N 38°13' W 122°36'0 0.5
2018-Jun-17 10:29N 38°13' W 122°36'2 3.5
2018-Jun-17 10:00N 38°12' W 122°35'2 3.9
2018-Jun-17 09:30N 38°11' W 122°33'2 4.0
2018-Jun-17 09:00N 38°09' W 122°32'3 5.4
2018-Jun-17 08:30N 38°07' W 122°30'4 3.6
2018-Jun-17 07:16N 38°04' W 122°26'1 4.2
2018-Jun-17 07:00N 38°03' W 122°26'2 3.9
2018-Jun-17 06:30N 38°02' W 122°24'3 4.3
2018-Jun-17 05:45N 38°03' W 122°20'1 4.6
2018-Jun-17 05:30N 38°04' W 122°18'3 5.6
2018-Jun-17 04:59N 38°04' W 122°14'5 0.4
2018-Jun-16 16:04N 38°02' W 122°08'0 4.2
2018-Jun-16 15:58N 38°02' W 122°08'2 4.6
2018-Jun-16 15:30N 38°03' W 122°11'2 4.6
2018-Jun-16 15:00N 38°04' W 122°13'3 4.0
2018-Jun-16 14:20N 38°04' W 122°17'2 4.5
2018-Jun-16 13:58N 38°03' W 122°19'4 5.4
2018-Jun-16 13:12N 38°03' W 122°24'1 6.5
2018-Jun-16 13:00N 38°04' W 122°26'4 7.3
2018-Jun-16 12:29N 38°07' W 122°29'4 7.2
2018-Jun-16 11:59N 38°09' W 122°32'2 4.8
2018-Jun-16 11:30N 38°12' W 122°33'2 4.5
2018-Jun-16 11:00N 38°13' W 122°35'1 2.7
2018-Jun-16 10:30N 38°14' W 122°36'0 0.0
2018-Jun-14 08:25N 38°13' W 122°36'0 0.0
2018-Jun-14 08:01N 38°13' W 122°36'0 0.9
2018-Jun-14 07:31N 38°13' W 122°36'2 4.0
2018-Jun-14 07:00N 38°12' W 122°34'2 4.1
2018-Jun-14 06:30N 38°10' W 122°32'2 3.9
2018-Jun-14 06:00N 38°09' W 122°31'2 4.7
2018-Jun-14 05:31N 38°07' W 122°30'4 4.3
2018-Jun-14 04:36N 38°04' W 122°26'1 5.2
2018-Jun-14 04:30N 38°04' W 122°26'2 4.0
2018-Jun-14 04:01N 38°02' W 122°24'2 4.6
2018-Jun-14 03:29N 38°03' W 122°21'3 5.3
2018-Jun-14 03:00N 38°03' W 122°18'3 6.8
2018-Jun-14 02:31N 38°04' W 122°14'16 2.0
2018-Jun-13 18:35N 38°03' W 121°54'0 0.0
2018-Jun-13 18:30N 38°03' W 121°54'11 2.1
2018-Jun-13 13:24N 38°02' W 122°08'2 4.0
2018-Jun-13 12:57N 38°02' W 122°10'2 4.5
2018-Jun-13 12:30N 38°03' W 122°12'2 4.0
2018-Jun-13 11:59N 38°04' W 122°15'2 4.1
2018-Jun-13 11:30N 38°04' W 122°17'3 5.0
2018-Jun-13 10:57N 38°03' W 122°21'3 5.8
2018-Jun-13 10:28N 38°04' W 122°24'4 6.7
2018-Jun-13 09:50N 38°07' W 122°28'2 5.4
2018-Jun-13 09:27N 38°07' W 122°31'3 6.1
2018-Jun-13 09:00N 38°10' W 122°32'2 3.5
2018-Jun-13 08:31N 38°12' W 122°33'2 4.2
2018-Jun-13 08:00N 38°13' W 122°35'1 2.7
2018-Jun-13 07:30N 38°14' W 122°36'0 0.0
2018-Jun-12 07:38N 38°14' W 122°36'0 0.0
2018-Jun-12 07:29N 38°14' W 122°36'1 2.6
2018-Jun-12 07:00N 38°13' W 122°35'2 4.0
2018-Jun-12 06:30N 38°12' W 122°33'2 3.9
2018-Jun-12 06:00N 38°10' W 122°33'3 5.2
2018-Jun-12 05:25N 38°07' W 122°31'2 4.0
2018-Jun-12 04:58N 38°07' W 122°28'3 4.8
2018-Jun-12 04:23N 38°05' W 122°26'2 4.7
2018-Jun-12 03:54N 38°03' W 122°25'2 4.1
2018-Jun-12 03:30N 38°02' W 122°23'2 4.6
2018-Jun-12 02:59N 38°03' W 122°20'2 5.3
2018-Jun-12 02:30N 38°04' W 122°17'3 6.6
2018-Jun-12 02:00N 38°04' W 122°13'15 1.7
2018-Jun-11 17:14N 38°03' W 121°54'11 2.9
2018-Jun-11 13:33N 38°02' W 122°08'0 4.8
2018-Jun-11 13:28N 38°02' W 122°08'2 5.1
2018-Jun-11 13:00N 38°03' W 122°11'2 4.8
2018-Jun-11 12:30N 38°04' W 122°14'  
Track history (hours):
 
Tides and Currents Weather Stations Pressure Air Temp Water Temp Dewpoint Dewpoint Depression Visibility Wind Speed Wind Dir Waves Ship Positions

Petaluma

Owner: JERICO PRODUCTS INC, PETALUMA, CA. More information available from US FCC via Universal Licensing System and Coast Guard Vessel Documentation Center.

Last reported at 2018-Jun-21 09:41 UTC. Time now 2018-Jun-21 10:07 UTC.
Position N 38°03' W 122°05'.

Length 20 m; draft 3.9 m.

Type: Towing. MMSI: 367006030.

Date/timePositionNaut miles runAvg speedWind from/ knotsBaromVisibWave heightAir tempDewpointWater temp
2018-Jun-21 09:41N 38°03' W 122°05'2 5.2
2018-Jun-21 09:13N 38°02' W 122°08'1 5.1
2018-Jun-21 09:00N 38°02' W 122°10'3 5.4
2018-Jun-21 08:30N 38°03' W 122°13'3 5.0
2018-Jun-21 08:00N 38°04' W 122°16'3 5.7
2018-Jun-21 07:30N 38°03' W 122°20'3 5.8
2018-Jun-21 06:59N 38°03' W 122°23'4 6.9
2018-Jun-21 06:27N 38°06' W 122°27'3 7.0
2018-Jun-21 06:00N 38°07' W 122°30'3 6.4
2018-Jun-21 05:30N 38°10' W 122°32'2 4.2
2018-Jun-21 05:00N 38°12' W 122°33'3 5.2
2018-Jun-21 04:30N 38°13' W 122°36'1 1.1
2018-Jun-21 04:00N 38°13' W 122°36'0 0.0
2018-Jun-21 03:30N 38°13' W 122°36'0 0.0
2018-Jun-21 02:59N 38°13' W 122°36'0 0.0
2018-Jun-21 02:29N 38°13' W 122°36'0 0.0
2018-Jun-21 02:00N 38°13' W 122°36'0 0.0
2018-Jun-21 01:30N 38°13' W 122°36'0 0.0
2018-Jun-21 00:59N 38°13' W 122°36'0 0.0
2018-Jun-21 00:30N 38°13' W 122°36'0 0.0
2018-Jun-21 00:00N 38°13' W 122°36'0 0.0
2018-Jun-20 23:30N 38°13' W 122°36'0 0.0
2018-Jun-20 23:00N 38°13' W 122°36'0 0.0
2018-Jun-20 22:30N 38°13' W 122°36'0 0.0
2018-Jun-20 22:00N 38°13' W 122°36'0 0.0
2018-Jun-20 21:30N 38°13' W 122°36'0 0.0
2018-Jun-20 21:00N 38°13' W 122°36'0 0.0
2018-Jun-20 20:30N 38°13' W 122°36'0 0.0
2018-Jun-20 20:00N 38°13' W 122°36'0 0.0
2018-Jun-20 19:30N 38°13' W 122°36'0 0.0
2018-Jun-20 19:00N 38°13' W 122°36'0 0.0
2018-Jun-20 18:30N 38°13' W 122°36'0 0.0
2018-Jun-20 18:00N 38°13' W 122°36'0 0.0
2018-Jun-20 17:29N 38°13' W 122°36'0 0.0
2018-Jun-20 17:00N 38°13' W 122°36'0 0.0
2018-Jun-20 16:30N 38°13' W 122°36'0 0.0
2018-Jun-20 16:00N 38°13' W 122°36'0 0.0
2018-Jun-20 15:30N 38°13' W 122°36'0 0.0
2018-Jun-20 15:00N 38°13' W 122°36'0 0.0
2018-Jun-20 14:30N 38°13' W 122°36'0 0.0
2018-Jun-20 14:00N 38°13' W 122°36'0 0.0
2018-Jun-20 13:30N 38°13' W 122°36'0 0.0
2018-Jun-20 13:00N 38°13' W 122°36'0 0.0
2018-Jun-20 12:30N 38°13' W 122°36'0 0.0
2018-Jun-20 12:00N 38°13' W 122°36'0 0.0
2018-Jun-20 11:30N 38°13' W 122°36'0 0.0
2018-Jun-20 11:00N 38°13' W 122°36'0 0.0
2018-Jun-20 10:27N 38°13' W 122°36'0 0.0
2018-Jun-20 10:00N 38°13' W 122°36'0 0.0
2018-Jun-20 09:13N 38°13' W 122°36'0 0.0
2018-Jun-20 08:56N 38°13' W 122°36'0 0.0
2018-Jun-20 08:29N 38°13' W 122°36'0 0.0
2018-Jun-20 07:59N 38°13' W 122°36'0 0.0
2018-Jun-20 07:11N 38°13' W 122°36'0 0.0
2018-Jun-20 06:58N 38°13' W 122°36'0 0.0
2018-Jun-20 06:30N 38°13' W 122°36'0 0.0
2018-Jun-20 06:00N 38°13' W 122°36'0 0.0
2018-Jun-20 05:30N 38°13' W 122°36'0 0.0
2018-Jun-20 05:00N 38°13' W 122°36'0 0.0
2018-Jun-20 04:30N 38°13' W 122°36'0 0.0
2018-Jun-20 04:00N 38°13' W 122°36'0 0.0
2018-Jun-20 03:30N 38°13' W 122°36'0 0.0
2018-Jun-20 03:00N 38°13' W 122°36'0 0.7
2018-Jun-20 02:29N 38°13' W 122°36'2 3.5
2018-Jun-20 02:00N 38°12' W 122°34'2 3.4
2018-Jun-20 01:30N 38°11' W 122°33'2 3.5
2018-Jun-20 01:00N 38°09' W 122°33'3 4.9
2018-Jun-20 00:27N 38°07' W 122°31'2 4.2
2018-Jun-20 00:00N 38°07' W 122°28'3 5.0
2018-Jun-19 23:25N 38°05' W 122°26'2 3.8
2018-Jun-19 22:57N 38°03' W 122°25'1 1.1
2018-Jun-19 22:24N 38°02' W 122°25'0 0.0
2018-Jun-19 21:41N 38°02' W 122°25'1 3.1
2018-Jun-19 21:26N 38°02' W 122°25'2 5.1
2018-Jun-19 21:00N 38°02' W 122°22'3 5.4
2018-Jun-19 20:30N 38°03' W 122°19'8 0.7
2018-Jun-19 08:31N 38°02' W 122°08'2 4.3
2018-Jun-19 08:07N 38°03' W 122°10'0 4.5
2018-Jun-19 08:00N 38°03' W 122°11'2 3.8
2018-Jun-19 07:30N 38°04' W 122°13'2 2.9
2018-Jun-19 06:59N 38°04' W 122°15'1 0.2
2018-Jun-19 00:03N 38°06' W 122°16'0 0.0
2018-Jun-19 00:00N 38°06' W 122°16'0 0.0
2018-Jun-18 22:27N 38°06' W 122°16'1 3.2
2018-Jun-18 22:00N 38°04' W 122°15'16 4.9
2018-Jun-18 18:40N 38°03' W 121°54'0 0.0
2018-Jun-18 17:43N 38°03' W 121°54'0 0.0
2018-Jun-18 17:17N 38°03' W 121°54'12 1.3
2018-Jun-18 08:12N 38°02' W 122°09'1 6.3
2018-Jun-18 08:00N 38°03' W 122°11'3 6.0
2018-Jun-18 07:28N 38°04' W 122°15'3 5.9
2018-Jun-18 07:00N 38°04' W 122°18'4 6.1
2018-Jun-18 06:16N 38°03' W 122°24'6 6.0
2018-Jun-18 05:18N 38°07' W 122°30'2 6.0
2018-Jun-18 05:00N 38°08' W 122°31'2 3.6
2018-Jun-18 04:30N 38°10' W 122°32'3 5.7
2018-Jun-18 04:00N 38°12' W 122°34'2 4.4
2018-Jun-18 03:30N 38°14' W 122°37'0 0.0
2018-Jun-17 10:43N 38°13' W 122°36'0 0.5
2018-Jun-17 10:29N 38°13' W 122°36'2 3.5
2018-Jun-17 10:00N 38°12' W 122°35'2 3.9
2018-Jun-17 09:30N 38°11' W 122°33'2 4.0
2018-Jun-17 09:00N 38°09' W 122°32'3 5.4
2018-Jun-17 08:30N 38°07' W 122°30'4 3.6
2018-Jun-17 07:16N 38°04' W 122°26'1 4.2
2018-Jun-17 07:00N 38°03' W 122°26'2 3.9
2018-Jun-17 06:30N 38°02' W 122°24'3 4.3
2018-Jun-17 05:45N 38°03' W 122°20'1 4.6
2018-Jun-17 05:30N 38°04' W 122°18'3 5.6
2018-Jun-17 04:59N 38°04' W 122°14'5 0.4
2018-Jun-16 16:04N 38°02' W 122°08'0 4.2
2018-Jun-16 15:58N 38°02' W 122°08'2 4.6
2018-Jun-16 15:30N 38°03' W 122°11'2 4.6
2018-Jun-16 15:00N 38°04' W 122°13'3 4.0
2018-Jun-16 14:20N 38°04' W 122°17'2 4.5
2018-Jun-16 13:58N 38°03' W 122°19'4 5.4
2018-Jun-16 13:12N 38°03' W 122°24'1 6.5
2018-Jun-16 13:00N 38°04' W 122°26'4 7.3
2018-Jun-16 12:29N 38°07' W 122°29'4 7.2
2018-Jun-16 11:59N 38°09' W 122°32'2 4.8
2018-Jun-16 11:30N 38°12' W 122°33'2 4.5
2018-Jun-16 11:00N 38°13' W 122°35'1 2.7
2018-Jun-16 10:30N 38°14' W 122°36'0 0.0
2018-Jun-14 08:25N 38°13' W 122°36'0 0.0
2018-Jun-14 08:01N 38°13' W 122°36'0 0.9
2018-Jun-14 07:31N 38°13' W 122°36'2 4.0
2018-Jun-14 07:00N 38°12' W 122°34'2 4.1
2018-Jun-14 06:30N 38°10' W 122°32'2 3.9
2018-Jun-14 06:00N 38°09' W 122°31'2 4.7
2018-Jun-14 05:31N 38°07' W 122°30'4 4.3
2018-Jun-14 04:36N 38°04' W 122°26'1 5.2
2018-Jun-14 04:30N 38°04' W 122°26'2 4.0
2018-Jun-14 04:01N 38°02' W 122°24'2 4.6
2018-Jun-14 03:29N 38°03' W 122°21'3 5.3
2018-Jun-14 03:00N 38°03' W 122°18'3 6.8
2018-Jun-14 02:31N 38°04' W 122°14'16 2.0
2018-Jun-13 18:35N 38°03' W 121°54'0 0.0
2018-Jun-13 18:30N 38°03' W 121°54'11 2.1
2018-Jun-13 13:24N 38°02' W 122°08'2 4.0
2018-Jun-13 12:57N 38°02' W 122°10'2 4.5
2018-Jun-13 12:30N 38°03' W 122°12'2 4.0
2018-Jun-13 11:59N 38°04' W 122°15'2 4.1
2018-Jun-13 11:30N 38°04' W 122°17'3 5.0
2018-Jun-13 10:57N 38°03' W 122°21'3 5.8
2018-Jun-13 10:28N 38°04' W 122°24'4 6.7
2018-Jun-13 09:50N 38°07' W 122°28'2 5.4
2018-Jun-13 09:27N 38°07' W 122°31'3 6.1
2018-Jun-13 09:00N 38°10' W 122°32'2 3.5
2018-Jun-13 08:31N 38°12' W 122°33'2 4.2
2018-Jun-13 08:00N 38°13' W 122°35'1 2.7
2018-Jun-13 07:30N 38°14' W 122°36'0 0.0
2018-Jun-12 07:38N 38°14' W 122°36'0 0.0
2018-Jun-12 07:29N 38°14' W 122°36'1 2.6
2018-Jun-12 07:00N 38°13' W 122°35'2 4.0
2018-Jun-12 06:30N 38°12' W 122°33'2 3.9
2018-Jun-12 06:00N 38°10' W 122°33'3 5.2
2018-Jun-12 05:25N 38°07' W 122°31'2 4.0
2018-Jun-12 04:58N 38°07' W 122°28'3 4.8
2018-Jun-12 04:23N 38°05' W 122°26'2 4.7
2018-Jun-12 03:54N 38°03' W 122°25'2 4.1
2018-Jun-12 03:30N 38°02' W 122°23'2 4.6
2018-Jun-12 02:59N 38°03' W 122°20'2 5.3
2018-Jun-12 02:30N 38°04' W 122°17'3 6.6
2018-Jun-12 02:00N 38°04' W 122°13'15 1.7
2018-Jun-11 17:14N 38°03' W 121°54'11 2.9
2018-Jun-11 13:33N 38°02' W 122°08'0 4.8
2018-Jun-11 13:28N 38°02' W 122°08'2 5.1
2018-Jun-11 13:00N 38°03' W 122°11'2 4.8
2018-Jun-11 12:30N 38°04' W 122°14'  

Dump ship's entire track history